Latest Weather Observations for Montague Island

IDN60801

Issued at 10:02 am EDT Sunday 7 February 2016 (issued every 30 minutes, with the page automatically refreshed every 10 minutes)

About weather observations | Map of weather stations | Latest weather observations for NSW | Other Formats
Station Details ID: 069017 Name: MONTAGUE ISLAND LIGHTHOUSE Lat: -36.25 Lon: 150.23 Height: 52.0 m
Data from the previous 72 hours. | See also: Recent months at Montague Island
Date/Time
EDT
Temp
°C
App
Temp
°C
Dew
Point
Rel
Hum
%
Delta-T
°C
Wind Press
QNH
hPa
Press
MSL
hPa
Rain
since 9 am
mm
Dir
 
Spd
km/h
Gust
km/h
Spd
kts
Gust
kts
07/10:00am 21.5 21.1 16.2 72 3.2 NNW 13 19 7 10 1018.2 1018.0 0.0
07/09:30am 20.9 20.5 16.1 74 2.9 NNW 13 19 7 10 1018.3 1018.1 0.0
07/09:00am 20.4 19.2 16.2 77 2.5 NNW 17 20 9 11 1018.4 1018.2 0.0
07/08:30am 19.8 19.0 16.1 79 2.2 NNW 15 19 8 10 1018.2 1018.0 0.0
07/08:00am 19.4 18.2 16.1 81 2.0 NW 17 20 9 11 1018.1 1017.9 0.0
07/07:30am 19.0 18.7 16.4 85 1.6 NNW 13 17 7 9 1018.0 1017.8 0.0
07/07:00am 18.6 18.3 16.4 87 1.3 NW 13 15 7 8 1017.9 1017.7 0.0
07/06:30am 18.7 18.7 16.3 86 1.4 NW 11 15 6 8 1017.7 1017.5 0.0
07/06:00am 18.9 19.3 16.3 85 1.6 NNW 9 13 5 7 1017.5 1017.3 0.0
07/05:30am 18.8 18.8 16.2 85 1.6 NW 11 13 6 7 1017.4 1017.2 0.0
07/05:00am 19.1 19.0 16.1 83 1.8 NW 11 17 6 9 1017.4 1017.2 0.0
07/04:30am 19.5 19.1 16.2 81 2.0 NW 13 17 7 9 1017.4 1017.2 0.0
07/04:00am 19.2 19.5 16.1 82 1.8 NW 9 13 5 7 1017.4 1017.2 0.0
07/03:30am 19.6 20.2 15.9 79 2.2 NW 7 9 4 5 1017.5 1017.3 0.0
07/03:00am 19.8 20.4 15.9 78 2.3 NW 7 11 4 6 1017.7 1017.5 0.0
07/02:30am 19.8 20.0 15.7 77 2.4 WNW 9 11 5 6 1017.8 1017.6 0.0
07/02:00am 20.2 20.3 15.6 75 2.7 WNW 9 13 5 7 1018.1 1017.9 0.0
07/01:30am 20.4 19.9 15.0 71 3.2 NNE 11 15 6 8 1018.3 1018.1 0.0
07/01:00am 20.3 19.8 14.9 71 3.2 NE 11 15 6 8 1018.7 1018.5 0.0
07/12:30am 20.3 19.4 14.9 71 3.2 NE 13 20 7 11 1018.8 1018.6 0.0
07/12:00am 20.5 20.1 15.1 71 3.2 NE 11 17 6 9 1019.0 1018.8 0.0
 
Date/Time
EDT
Temp
°C
App
Temp
°C
Dew
Point
Rel
Hum
%
Delta-T
°C
Wind Press
QNH
hPa
Press
MSL
hPa
Rain
since 9 am
mm
Dir
 
Spd
km/h
Gust
km/h
Spd
kts
Gust
kts
06/11:30pm 20.6 19.6 14.5 68 3.6 NE 13 15 7 8 1019.2 1019.0 0.0
06/11:00pm 20.7 19.4 14.8 69 3.5 ENE 15 19 8 10 1019.2 1019.0 0.0
06/10:30pm 20.7 19.8 14.8 69 3.5 NE 13 17 7 9 1019.3 1019.1 0.0
06/10:00pm 20.6 19.2 14.5 68 3.6 ENE 15 19 8 10 1019.3 1019.1 0.0
06/09:30pm 20.7 19.4 14.8 69 3.5 ENE 15 19 8 10 1019.1 1018.9 0.0
06/09:00pm 20.6 18.8 14.5 68 3.6 ENE 17 22 9 12 1018.9 1018.7 0.0
06/08:30pm 20.6 19.1 14.3 67 3.7 ENE 15 17 8 9 1018.8 1018.6 0.0
06/08:00pm 20.6 18.7 14.3 67 3.7 ENE 17 20 9 11 1018.5 1018.3 0.0
06/07:30pm 20.9 19.4 14.3 66 3.9 ENE 15 20 8 11 1018.4 1018.2 0.0
06/07:00pm 21.1 19.0 14.7 67 3.8 E 19 20 10 11 1018.2 1018.0 0.0
06/06:30pm 21.4 19.8 15.0 67 3.8 E 17 24 9 13 1017.9 1017.7 0.0
06/06:00pm 21.5 19.9 15.1 67 3.8 E 17 22 9 12 1017.8 1017.6 0.0
06/05:30pm 21.9 19.8 14.8 64 4.2 ENE 19 22 10 12 1017.8 1017.6 0.0
06/05:00pm 22.0 19.9 15.1 65 4.1 ENE 20 24 11 13 1017.8 1017.6 0.0
06/04:30pm 22.2 20.1 15.1 64 4.2 E 20 26 11 14 1017.9 1017.7 0.0
06/04:00pm 22.7 21.0 15.8 65 4.2 E 19 22 10 12 1018.0 1017.8 0.0
06/03:30pm 22.6 21.3 15.9 66 4.0 E 17 24 9 13 1018.2 1018.0 0.0
06/03:00pm 22.8 21.4 16.6 68 3.8 E 19 22 10 12 1018.5 1018.3 0.0
06/02:30pm 22.4 20.6 16.0 67 3.9 E 20 24 11 13 1018.6 1018.4 0.0
06/02:00pm 22.8 21.0 15.4 63 4.4 E 19 20 10 11 1018.8 1018.6 0.0
06/01:30pm 23.0 21.7 15.8 64 4.3 E 17 22 9 12 1019.1 1018.9 0.0
06/01:00pm 22.4 20.5 15.7 66 4.0 E 20 24 11 13 1019.3 1019.1 0.0
06/12:30pm 22.5 21.8 15.4 64 4.3 ESE 13 17 7 9 1019.7 1019.5 0.0
06/12:00pm 22.3 22.9 16.8 71 3.4 SW 9 13 5 7 1020.0 1019.8 0.0
06/11:30am 21.4 22.2 17.4 78 2.5 SSW 9 13 5 7 1020.1 1019.9 0.0
06/11:00am 20.7 21.4 17.1 80 2.2 SSW 9 15 5 8 1020.2 1020.0 0.0
06/10:30am 21.1 20.7 17.1 78 2.4 SW 15 19 8 10 1020.3 1020.1 0.0
06/10:00am 20.9 20.4 16.9 78 2.4 SW 15 19 8 10 1020.3 1020.1 0.0
06/09:30am 20.7 20.7 17.3 81 2.1 SW 13 19 7 10 1020.3 1020.1 0.0
06/09:00am 20.3 19.4 16.9 81 2.1 SW 17 20 9 11 1020.1 1019.9 3.8
06/08:30am 20.3 19.8 16.9 81 2.1 SW 15 19 8 10 1020.1 1019.9 3.8
06/08:00am 20.1 20.1 17.1 83 1.8 SW 13 17 7 9 1019.8 1019.6 3.8
06/07:30am 19.9 19.4 16.9 83 1.8 SW 15 24 8 13 1019.6 1019.4 3.8
06/07:00am 19.6 18.3 16.8 84 1.7 SW 19 24 10 13 1019.4 1019.2 3.8
06/06:30am 19.6 19.3 16.4 82 1.9 SSW 13 17 7 9 1019.2 1019.0 3.8
06/06:00am 19.6 19.0 15.7 78 2.3 SSE 13 26 7 14 1019.1 1018.9 3.8
06/05:30am 20.6 17.8 14.3 67 3.7 E 22 30 12 16 1018.8 1018.6 3.8
06/05:00am 20.6 18.4 14.9 70 3.3 E 20 24 11 13 1018.9 1018.7 3.8
06/04:30am 20.7 18.3 15.3 71 3.2 E 22 28 12 15 1018.8 1018.6 3.8
06/04:00am 20.7 18.4 15.7 73 3.0 ESE 22 28 12 15 1019.0 1018.8 3.8
06/03:30am 20.6 18.1 15.2 71 3.2 ESE 22 28 12 15 1019.2 1019.0 3.8
06/03:00am 20.5 17.8 15.7 74 2.9 E 24 30 13 16 1019.4 1019.2 3.8
06/02:30am 20.5 17.8 16.7 79 2.3 ESE 26 33 14 18 1019.5 1019.3 3.8
06/02:00am 20.8 18.8 15.6 72 3.1 ESE 20 24 11 13 1019.7 1019.5 3.8
06/01:30am 20.7 18.6 16.3 76 2.7 SE 22 26 12 14 1020.0 1019.8 3.8
06/01:00am 20.6 16.8 16.8 79 2.3 ESE 32 37 17 20 1020.1 1019.9 3.8
06/12:30am 20.7 18.9 16.9 79 2.3 ESE 22 28 12 15 1020.3 1020.1 3.8
06/12:00am 20.8 18.4 16.4 76 2.7 SE 24 32 13 17 1020.5 1020.3 3.8
 
Date/Time
EDT
Temp
°C
App
Temp
°C
Dew
Point
Rel
Hum
%
Delta-T
°C
Wind Press
QNH
hPa
Press
MSL
hPa
Rain
since 9 am
mm
Dir
 
Spd
km/h
Gust
km/h
Spd
kts
Gust
kts
05/11:30pm 20.8 18.5 16.6 77 2.5 SE 24 30 13 16 1020.7 1020.5 3.8
05/11:00pm 20.7 17.6 16.5 77 2.5 ESE 28 33 15 18 1020.9 1020.7 3.8
05/10:30pm 20.7 18.3 16.3 76 2.7 SE 24 28 13 15 1020.9 1020.7 3.8
05/10:00pm 20.6 18.4 16.8 79 2.3 SE 24 30 13 16 1021.0 1020.8 3.8
05/09:30pm 20.5 17.8 16.7 79 2.3 ESE 26 30 14 16 1020.8 1020.6 3.8
05/09:00pm 20.5 19.2 16.7 79 2.3 SE 19 24 10 13 1020.6 1020.4 3.8
05/08:30pm 20.4 17.8 16.8 80 2.2 SE 26 32 14 17 1020.4 1020.2 3.8
05/08:00pm 20.5 18.9 16.5 78 2.4 SSE 20 26 11 14 1020.2 1020.0 3.8
05/07:30pm 19.8 19.9 17.4 86 1.5 S 13 26 7 14 1020.1 1019.9 3.8
05/07:00pm 20.1 18.4 17.1 83 1.8 ESE 22 28 12 15 1019.9 1019.7 3.8
05/06:30pm 19.8 16.9 17.0 84 1.7 ESE 28 32 15 17 1019.7 1019.5 3.8
05/06:00pm 19.1 18.1 17.9 93 0.7 SE 20 30 11 16 1019.8 1019.6 3.8
05/05:30pm 19.8 14.6 16.6 82 1.9 SSE 39 44 21 24 1019.8 1019.6 2.6
05/05:29pm 20.0 15.1 16.4 80 2.2 S 37 44 20 24 1019.8 1019.6 2.6
05/05:00pm 20.9 17.6 16.9 78 2.4 S 30 37 16 20 1019.8 1019.6 2.6
05/04:30pm 20.9 18.5 16.5 76 2.7 SSE 24 30 13 16 1019.9 1019.7 2.6
05/04:00pm 20.0 17.2 18.1 89 1.2 SE 30 33 16 18 1020.0 1019.8 2.6
05/03:30pm 19.9 16.9 18.7 93 0.8 SSW 32 39 17 21 1020.0 1019.8 2.0
05/03:00pm 19.0 15.7 18.3 96 0.4 S 33 43 18 23 1020.4 1020.2 2.0
05/02:41pm 19.5 14.4 16.7 84 1.7 S 39 46 21 25 1020.2 1020.0 0.8
05/02:30pm 21.4 17.4 16.6 74 2.9 SSW 33 41 18 22 1020.2 1020.0 0.8
05/02:00pm 21.2 17.8 18.2 83 1.9 SSW 33 39 18 21 1020.3 1020.1 0.8
05/01:30pm 18.6 14.5 17.3 92 0.8 SSW 35 44 19 24 1020.7 1020.5 0.8
05/01:00pm 20.1 17.0 18.4 90 1.1 SW 32 41 17 22 1020.8 1020.6 0.8
05/12:30pm 18.7 14.3 17.5 93 0.7 SSW 37 44 20 24 1020.8 1020.6 0.8
05/12:00pm 19.5 14.0 17.6 89 1.2 SW 43 54 23 29 1020.8 1020.6 0.6
05/11:30am 19.4 13.8 16.6 84 1.7 SW 41 50 22 27 1021.0 1020.8 0.6
05/11:00am 18.9 14.0 17.4 91 0.9 SSW 39 48 21 26 1021.0 1020.8 0.6
05/10:30am 18.8 13.7 15.7 82 1.8 SW 37 46 20 25 1020.9 1020.7 0.2
05/10:00am 19.3 14.1 15.6 79 2.2 SSW 37 46 20 25 1020.6 1020.4 0.0
05/09:30am 18.9 14.3 16.0 83 1.7 SW 35 43 19 23 1020.5 1020.3 0.0
05/09:00am 17.3 12.0 15.3 88 1.2 SSW 37 46 20 25 1020.5 1020.3 2.2
05/08:30am 17.6 12.8 15.6 88 1.2 SSW 35 43 19 23 1020.2 1020.0 1.8
05/08:00am 18.1 11.7 15.5 85 1.5 SW 43 56 23 30 1019.5 1019.3 1.0
05/07:30am 17.9 11.8 15.2 84 1.6 SW 41 54 22 29 1019.0 1018.8 1.0
05/07:00am 17.4 12.1 15.4 88 1.2 SW 37 46 20 25 1019.0 1018.8 1.0
05/06:30am 18.1 12.9 14.4 79 2.1 SSW 35 52 19 28 1018.8 1018.6 1.0
05/06:00am 17.9 12.1 15.0 83 1.7 SW 39 46 21 25 1018.2 1018.0 1.0
05/05:30am 17.5 12.9 15.0 85 1.5 SW 33 52 18 28 1017.8 1017.6 0.6
05/05:28am 17.5 13.4 15.0 85 1.5 SW 30 46 16 25 1017.9 1017.7 0.6
05/05:21am 17.4 12.6 14.7 84 1.6 SW 33 48 18 26 1018.3 1018.1 0.4
05/05:00am 17.4 10.6 14.7 84 1.6 SSW 44 57 24 31 1017.9 1017.7 0.2
05/04:30am 18.6 11.6 14.3 76 2.5 SW 44 54 24 29 1017.5 1017.3 0.0
05/04:00am 18.6 12.3 14.5 77 2.4 SSW 41 52 22 28 1017.5 1017.3 0.0
05/03:30am 18.3 11.5 14.4 78 2.3 SSW 43 52 23 28 1017.4 1017.2 0.0
05/03:00am 18.1 11.3 14.2 78 2.2 SW 43 56 23 30 1017.6 1017.4 0.0
05/02:30am 18.3 11.5 14.2 77 2.4 SSW 43 57 23 31 1017.8 1017.6 0.0
05/02:00am 18.7 12.6 14.2 75 2.6 SW 39 54 21 29 1018.1 1017.9 0.0
05/01:30am 18.6 11.7 13.9 74 2.7 SSW 43 56 23 30 1018.1 1017.9 0.0
05/01:00am 18.8 12.5 14.5 76 2.5 SW 41 54 22 29 1018.2 1018.0 0.0
05/12:30am 18.4 11.9 14.1 76 2.5 SSW 41 52 22 28 1018.5 1018.3 0.0
05/12:00am 17.9 12.5 13.8 77 2.3 SSW 35 44 19 24 1018.8 1018.6 0.0
 
Date/Time
EDT
Temp
°C
App
Temp
°C
Dew
Point
Rel
Hum
%
Delta-T
°C
Wind Press
QNH
hPa
Press
MSL
hPa
Rain
since 9 am
mm
Dir
 
Spd
km/h
Gust
km/h
Spd
kts
Gust
kts
04/11:30pm 19.0 11.8 13.6 71 3.1 SSW 44 56 24 30 1018.5 1018.3 0.0
04/11:00pm 18.9 12.2 13.5 71 3.1 SW 41 52 22 28 1018.6 1018.4 0.0
04/10:30pm 19.8 12.9 14.6 72 3.0 SSW 44 61 24 33 1018.6 1018.4 0.0
04/10:00pm 19.7 12.0 14.5 72 3.0 SSW 48 63 26 34 1018.6 1018.4 0.0
04/09:30pm 20.0 12.3 14.4 70 3.3 SSW 48 59 26 32 1018.4 1018.2 0.0
04/09:00pm 19.9 12.4 13.8 68 3.5 SSW 46 56 25 30 1018.2 1018.0 0.0
04/08:30pm 20.1 12.4 13.3 65 3.9 S 46 56 25 30 1018.0 1017.8 0.0
04/08:00pm 20.0 11.9 13.2 65 3.9 S 48 57 26 31 1017.6 1017.4 0.0
04/07:30pm 20.3 12.1 12.8 62 4.3 S 48 61 26 33 1017.5 1017.3 0.0
04/07:00pm 20.5 10.2 13.0 62 4.3 SSE 59 72 32 39 1016.7 1016.5 0.0
04/06:30pm 20.6 10.9 13.1 62 4.3 SSE 56 69 30 37 1016.4 1016.2 0.0
04/06:00pm 20.8 9.6 13.7 64 4.1 SSE 65 76 35 41 1015.9 1015.7 0.0
04/05:44pm 21.0 10.1 13.4 62 4.4 SSE 63 82 34 44 1015.5 1015.3 0.0
04/05:30pm 21.2 11.7 14.1 64 4.1 SSE 57 69 31 37 1015.8 1015.6 0.0
04/05:00pm 21.2 12.8 14.6 66 3.9 SSE 52 65 28 35 1015.9 1015.7 0.0
04/04:30pm 21.6 13.1 14.3 63 4.3 S 52 65 28 35 1015.9 1015.7 0.0
04/04:00pm 21.7 13.6 14.4 63 4.3 SSE 50 61 27 33 1016.0 1015.8 0.0
04/03:30pm 22.4 14.9 15.0 63 4.4 S 48 57 26 31 1015.9 1015.7 0.0
04/03:00pm 22.8 16.0 14.9 61 4.7 S 44 57 24 31 1015.9 1015.7 0.0
04/02:30pm 23.1 16.8 15.7 63 4.5 S 43 52 23 28 1016.0 1015.8 0.0
04/02:00pm 22.9 16.8 15.2 62 4.6 S 41 56 22 30 1016.2 1016.0 0.0
04/01:30pm 22.8 16.2 15.4 63 4.4 SSW 44 54 24 29 1016.3 1016.1 0.0
04/01:00pm 23.0 16.4 15.3 62 4.6 SSW 44 56 24 30 1016.4 1016.2 0.0
04/12:30pm 22.8 16.4 15.9 65 4.2 SSW 44 52 24 28 1016.3 1016.1 0.0
04/12:00pm 22.8 16.9 16.6 68 3.8 SSW 43 54 23 29 1016.2 1016.0 0.0
04/11:30am 22.4 15.8 16.4 69 3.7 SSW 46 59 25 32 1015.9 1015.7 0.0
04/11:00am 21.6 14.1 15.9 70 3.4 SSW 50 57 27 31 1015.7 1015.5 0.0
04/10:30am 21.2 13.8 16.2 73 3.0 SSW 50 61 27 33 1015.5 1015.3 0.0

Other Formats:

Comma delimited format used in spreadsheet applications
http://www.bom.gov.au/fwo/IDN60801/IDN60801.94939.axf

JavaScript Object Notation format (JSON) in row-major order
http://www.bom.gov.au/fwo/IDN60801/IDN60801.94939.json